Grand Crossing, Illinois
Current Conditions -  °F | °C
As of 7:53 PM on Monday 24 Nov 2014 (Local Time) from KMDW Reporting Station
Light Snow Light Snow  
Wind Chill: 14°   Ceiling: 1700
Heat Index: 29°   Visibility: 9mi
Dew Point: 23°   Wind: 26mph
Humidity: 78%   Direction: 260°W
Pressure: 29.73"   Gusts: 39mph
Location:  41.744°N, 87.6051°W
Report Text: KMDW 250153Z 26023G34KT 9SM -SN OVC017 M02/M05 A2973 RMK AO2 PK WND 25036/0109 SNB40 SLP074 P0000 T10171050
Loading
Personal Weather Stations






























Interactive Weather Map New forecast layout! Learn more

10-Day Weather Forecast

Advertisements
Track Severe Weather on mobile